Startpagina
METAR-TAF:

METAR-TAF

Vliegvelden :

Meeker Airport

Meeker, Colorado, Verenigde Staten

breedte: 40-02-32N, lengte: 107-53-23W, hoogte: 1948 m

Actueel weer

Dit bericht is 18 minuten geleden gemaakt, om 16:53 UTC
Wind 7 kt uit het noordwesten
Temperatuur 11°C
Vochtigheid 35%
Druk 1027 hPa
Zicht: 16.1 km
Gebroken wolken op 5500 ft

METAR: KEEO 181653Z AUTO 31007KT 10SM BKN055 11/M04 A3033 RMK AO2 SLP234 T01061044

Tijdstip: 11:11 (17:11 UTC)


TAF: ontbreekt

Waarnemingen en weersverwachtingen van meer dan 4000 vliegvelden (METAR en TAF).

De beschikbare stations zijn de gele en rode punten op de kaart.

Ga met uw muis naar het station om de naam te zien.

Klik dan om waarnemingen en weersverwachtingen te zien.

kaart wijzigen: klik op de groene knoppen met een zwart kruis om in te zoomen, op de groene knop met een streepje om uit te zoomen of op de groene pijlen voor aangrenzende kaarten.


METAR-TAF: